Terminal Aerodrome Forecast
Issued by NWS

Home | Current Version | Previous Version | Text Only | Print | Product List | Glossary On
Versions: 1 2 3 4 5 6 7 8 9 10 11 12 13 14 15 16 17 18 19 20 21 22 23 24 25 26 27
000
FTUS44 KMAF 220000 AAA
TAFCNM
TAF AMD
KCNM 220041Z 2201/2224 07012KT P6SM OVC040
      TEMPO 2201/2204 1SM +TSRA OVC008CB
     FM220400 03007KT P6SM OVC040
      TEMPO 2204/2208 1SM TSRA BR OVC010CB
     FM220800 VRB05KT P6SM OVC020
      TEMPO 2208/2212 4SM -RA BR OVC010=

USA.gov is the U.S. government's official web portal to all federal, state and local government web resources and services.